Time;durP1;ratioP1;P1;durP2;ratioP2;P2;SDS_P1;SDS_P2;PMS_P1;PMS_P2;Temp;Humidity;BMP_temperature;BMP_pressure;BME280_temperature;BME280_humidity;BME280_pressure;Samples;Min_cycle;Max_cycle;Signal;HPM_P1;HPM_P2
2022/03/19 00:01:20;;;;;;;22.97;10.23;;;;;;;;;;5022043;28;20828;-80
2022/03/19 00:03:46;;;;;;;21.52;10.20;;;;;;;;;;5024061;28;20854;-79
2022/03/19 00:06:12;;;;;;;21.70;10.30;;;;;;;;;;5023046;28;21001;-80
2022/03/19 00:08:39;;;;;;;24.55;9.73;;;;;;;;;;5021332;28;20429;-80
2022/03/19 00:11:05;;;;;;;22.20;8.57;;;;;;;;;;5020702;28;20439;-78
2022/03/19 00:13:33;;;;;;;19.73;9.48;;;;;;;;;;5022986;28;20932;-79
2022/03/19 00:15:59;;;;;;;24.50;10.35;;;;;;;;;;5022679;28;20440;-79
2022/03/19 00:18:27;;;;;;;20.83;9.35;;;;;;;;;;5021565;28;20435;-80
2022/03/19 00:20:53;;;;;;;19.25;8.98;;;;;;;;;;5024360;28;20434;-79
2022/03/19 00:23:20;;;;;;;18.42;8.80;;;;;;;;;;5022588;28;20414;-78
2022/03/19 00:25:46;;;;;;;21.08;9.48;;;;;;;;;;5020455;28;20428;-78
2022/03/19 00:28:13;;;;;;;25.05;9.30;;;;;;;;;;5021932;28;20472;-78
2022/03/19 00:30:40;;;;;;;19.60;9.35;;;;;;;;;;5021508;28;20429;-78
2022/03/19 00:33:07;;;;;;;20.13;8.10;;;;;;;;;;5021700;28;20426;-78
2022/03/19 00:35:33;;;;;;;20.13;8.32;;;;;;;;;;5021976;28;21073;-78
2022/03/19 00:38:01;;;;;;;19.63;8.65;;;;;;;;;;5021122;28;20421;-75
2022/03/19 00:40:27;;;;;;;23.92;8.45;;;;;;;;;;5020608;28;20519;-78
2022/03/19 00:42:53;;;;;;;17.08;8.30;;;;;;;;;;5020100;28;20420;-78
2022/03/19 00:45:20;;;;;;;18.90;8.18;;;;;;;;;;5020835;28;21037;-78
2022/03/19 00:47:47;;;;;;;20.23;8.63;;;;;;;;;;5020463;28;20450;-79
2022/03/19 00:50:14;;;;;;;25.17;8.98;;;;;;;;;;5019597;28;20428;-76
2022/03/19 00:52:40;;;;;;;23.85;8.45;;;;;;;;;;5020938;28;20436;-78
2022/03/19 00:55:08;;;;;;;25.33;8.63;;;;;;;;;;5023582;28;20436;-77
2022/03/19 00:57:38;;;;;;;18.35;8.60;;;;;;;;;;5019858;28;20998;-78
2022/03/19 01:00:05;;;;;;;25.55;9.55;;;;;;;;;;5018868;28;20415;-78
2022/03/19 01:02:31;;;;;;;18.42;8.18;;;;;;;;;;5019493;28;20468;-78
2022/03/19 01:04:59;;;;;;;19.60;9.02;;;;;;;;;;5019295;28;20477;-78
2022/03/19 01:07:25;;;;;;;17.80;8.00;;;;;;;;;;5020229;28;20428;-78
2022/03/19 01:09:51;;;;;;;17.60;8.55;;;;;;;;;;5015705;28;20981;-78
2022/03/19 01:12:18;;;;;;;17.38;8.02;;;;;;;;;;5019190;28;20428;-78
2022/03/19 01:14:44;;;;;;;17.98;8.13;;;;;;;;;;5019251;28;20425;-78
2022/03/19 01:17:10;;;;;;;23.08;9.15;;;;;;;;;;5019073;28;20422;-78
2022/03/19 01:19:57;;;;;;;17.07;8.10;;;;;;;;;;5020444;28;20423;-78
2022/03/19 01:22:25;;;;;;;20.23;9.02;;;;;;;;;;5020847;28;20445;-76
2022/03/19 01:24:51;;;;;;;17.45;8.68;;;;;;;;;;5020945;28;20915;-78
2022/03/19 01:27:18;;;;;;;14.60;7.85;;;;;;;;;;5015341;28;21006;-78
2022/03/19 01:29:44;;;;;;;24.10;9.07;;;;;;;;;;5020973;28;20476;-78
2022/03/19 01:32:11;;;;;;;15.68;7.90;;;;;;;;;;5019805;28;22554;-78
2022/03/19 01:34:37;;;;;;;16.90;7.80;;;;;;;;;;5020466;28;20801;-78
2022/03/19 01:37:03;;;;;;;17.80;8.93;;;;;;;;;;5046343;23;20412;-85
2022/03/19 01:39:31;;;;;;;12.47;7.87;;;;;;;;;;5059231;28;20497;-84
2022/03/19 01:41:57;;;;;;;18.63;8.60;;;;;;;;;;5059483;28;20417;-84
2022/03/19 01:44:23;;;;;;;22.90;8.68;;;;;;;;;;5058149;28;20847;-85
2022/03/19 01:46:57;;;;;;;18.75;7.68;;;;;;;;;;5058490;28;20836;-85
2022/03/19 01:49:23;;;;;;;20.08;7.82;;;;;;;;;;5055638;28;20418;-84
2022/03/19 01:51:50;;;;;;;16.77;7.75;;;;;;;;;;5057499;28;20436;-84
2022/03/19 01:54:16;;;;;;;20.52;8.48;;;;;;;;;;5058458;28;20425;-85
2022/03/19 01:56:45;;;;;;;18.45;8.00;;;;;;;;;;5055344;28;20503;-83
2022/03/19 01:59:12;;;;;;;17.23;7.57;;;;;;;;;;5059247;28;20911;-84
2022/03/19 02:01:38;;;;;;;20.02;8.20;;;;;;;;;;5059995;28;20479;-84
2022/03/19 02:04:04;;;;;;;23.10;8.70;;;;;;;;;;5060771;28;20428;-85
2022/03/19 02:06:31;;;;;;;17.30;8.02;;;;;;;;;;5059813;28;20425;-84
2022/03/19 02:08:58;;;;;;;14.40;7.47;;;;;;;;;;5054875;28;20432;-84
2022/03/19 02:11:26;;;;;;;20.35;7.75;;;;;;;;;;5061005;28;20487;-84
2022/03/19 02:13:54;;;;;;;16.77;8.00;;;;;;;;;;5060828;28;20431;-84
2022/03/19 02:16:20;;;;;;;18.23;8.60;;;;;;;;;;5058949;28;20425;-84
2022/03/19 02:18:47;;;;;;;15.70;8.13;;;;;;;;;;5059165;28;20415;-84
2022/03/19 02:21:14;;;;;;;18.77;8.15;;;;;;;;;;5058577;28;20407;-84
2022/03/19 02:26:25;;;;;;;21.95;8.65;;;;;;;;;;5059011;28;20549;-84
2022/03/19 02:28:51;;;;;;;16.13;8.07;;;;;;;;;;5059947;28;20451;-84
2022/03/19 02:31:18;;;;;;;26.85;10.43;;;;;;;;;;5060176;28;20804;-84
2022/03/19 02:33:44;;;;;;;21.20;8.38;;;;;;;;;;5060261;28;20421;-85
2022/03/19 02:36:10;;;;;;;20.40;9.10;;;;;;;;;;5059903;28;20415;-86
2022/03/19 02:38:36;;;;;;;17.33;9.20;;;;;;;;;;5057628;28;20437;-85
2022/03/19 02:41:05;;;;;;;21.00;10.00;;;;;;;;;;5058788;28;20413;-84
2022/03/19 02:43:31;;;;;;;22.30;9.55;;;;;;;;;;5060331;28;20969;-85
2022/03/19 02:45:58;;;;;;;21.90;10.63;;;;;;;;;;5056954;28;20448;-85
2022/03/19 02:48:24;;;;;;;22.63;10.25;;;;;;;;;;5058505;28;20510;-84
2022/03/19 02:50:50;;;;;;;21.23;11.18;;;;;;;;;;5061174;28;20471;-84
2022/03/19 02:53:16;;;;;;;24.13;11.18;;;;;;;;;;5058287;28;20479;-84
2022/03/19 02:55:44;;;;;;;23.67;12.10;;;;;;;;;;5059240;28;20411;-82
2022/03/19 02:58:12;;;;;;;23.90;12.30;;;;;;;;;;5057686;28;20427;-84
2022/03/19 03:00:39;;;;;;;19.42;11.38;;;;;;;;;;5057046;28;20927;-84
2022/03/19 03:03:05;;;;;;;23.13;11.90;;;;;;;;;;5056649;28;20510;-84
2022/03/19 03:05:33;;;;;;;26.92;12.38;;;;;;;;;;5056519;28;20433;-84
2022/03/19 03:07:59;;;;;;;19.83;12.00;;;;;;;;;;5058677;28;20516;-81
2022/03/19 03:10:26;;;;;;;23.35;12.77;;;;;;;;;;5058130;28;20832;-84
2022/03/19 03:12:52;;;;;;;20.90;12.50;;;;;;;;;;5057388;28;20775;-85
2022/03/19 03:15:20;;;;;;;23.70;12.48;;;;;;;;;;5060087;28;20415;-84
2022/03/19 03:17:47;;;;;;;25.70;12.45;;;;;;;;;;5058353;28;20428;-85
2022/03/19 03:20:13;;;;;;;22.45;12.00;;;;;;;;;;5057879;28;20927;-83
2022/03/19 03:22:42;;;;;;;23.65;13.15;;;;;;;;;;5060771;28;20776;-84
2022/03/19 03:25:08;;;;;;;27.15;12.95;;;;;;;;;;5061031;28;20429;-85
2022/03/19 03:27:35;;;;;;;27.40;12.48;;;;;;;;;;5059389;28;20923;-84
2022/03/19 03:30:01;;;;;;;22.88;12.68;;;;;;;;;;5063096;28;20421;-84
2022/03/19 03:32:29;;;;;;;26.58;11.88;;;;;;;;;;5062239;28;20419;-84
2022/03/19 03:34:55;;;;;;;21.40;13.07;;;;;;;;;;5060391;28;20427;-84
2022/03/19 03:37:21;;;;;;;22.13;11.60;;;;;;;;;;5060856;28;20432;-84
2022/03/19 03:39:48;;;;;;;24.67;11.55;;;;;;;;;;5060076;28;20504;-85
2022/03/19 03:42:15;;;;;;;20.60;12.27;;;;;;;;;;5058191;28;20419;-84
2022/03/19 03:44:42;;;;;;;27.57;12.40;;;;;;;;;;5059764;28;20989;-84
2022/03/19 03:47:08;;;;;;;21.90;11.40;;;;;;;;;;5062150;28;20853;-84
2022/03/19 03:49:36;;;;;;;23.05;11.40;;;;;;;;;;5059124;28;20413;-85
2022/03/19 03:52:02;;;;;;;22.13;11.15;;;;;;;;;;5060146;28;20429;-84
2022/03/19 03:54:28;;;;;;;20.00;10.65;;;;;;;;;;5057819;28;20477;-84
2022/03/19 03:56:55;;;;;;;23.80;11.55;;;;;;;;;;5058851;28;20435;-84
2022/03/19 03:59:23;;;;;;;21.50;11.07;;;;;;;;;;5060491;28;20423;-85
2022/03/19 04:01:49;;;;;;;23.95;11.18;;;;;;;;;;5058861;28;20854;-85
2022/03/19 04:04:15;;;;;;;28.80;10.40;;;;;;;;;;5058428;28;20421;-84
2022/03/19 04:06:43;;;;;;;25.35;9.88;;;;;;;;;;5061533;28;20423;-85
2022/03/19 04:09:09;;;;;;;22.00;9.95;;;;;;;;;;5058681;28;20522;-84
2022/03/19 04:11:35;;;;;;;22.00;10.60;;;;;;;;;;5060641;28;20425;-86
2022/03/19 04:14:02;;;;;;;19.73;9.38;;;;;;;;;;5060433;28;20463;-84
2022/03/19 04:16:28;;;;;;;23.08;9.90;;;;;;;;;;5059662;28;20417;-85
2022/03/19 04:18:54;;;;;;;18.08;9.70;;;;;;;;;;5057514;28;20451;-84
2022/03/19 04:21:21;;;;;;;24.65;9.45;;;;;;;;;;5061561;28;20421;-84
2022/03/19 04:23:48;;;;;;;18.23;9.40;;;;;;;;;;5060371;28;21150;-84
2022/03/19 04:26:15;;;;;;;22.48;9.18;;;;;;;;;;5056480;28;20469;-85
2022/03/19 04:28:41;;;;;;;18.73;8.60;;;;;;;;;;5060679;28;20421;-84
2022/03/19 04:31:07;;;;;;;19.97;9.10;;;;;;;;;;5061239;28;20427;-84
2022/03/19 04:33:33;;;;;;;21.95;9.60;;;;;;;;;;5056184;28;20439;-85
2022/03/19 04:38:43;;;;;;;20.40;8.27;;;;;;;;;;5058234;28;20446;-85
2022/03/19 04:41:12;;;;;;;20.63;8.50;;;;;;;;;;5059019;28;20429;-84
2022/03/19 04:43:39;;;;;;;20.48;8.50;;;;;;;;;;5059190;28;20433;-84
2022/03/19 04:46:05;;;;;;;26.73;8.30;;;;;;;;;;5061232;28;20437;-85
2022/03/19 04:48:32;;;;;;;19.25;8.30;;;;;;;;;;5060074;28;20479;-84
2022/03/19 04:50:58;;;;;;;16.00;7.80;;;;;;;;;;5060245;28;20423;-84
2022/03/19 04:53:25;;;;;;;17.90;7.80;;;;;;;;;;5056995;28;20427;-84
2022/03/19 04:55:51;;;;;;;17.95;8.10;;;;;;;;;;5061314;28;20530;-84
2022/03/19 04:58:19;;;;;;;18.70;8.18;;;;;;;;;;5059400;28;20935;-84
2022/03/19 05:00:45;;;;;;;24.63;8.77;;;;;;;;;;5056789;28;20425;-84
2022/03/19 05:03:13;;;;;;;22.13;8.70;;;;;;;;;;5061743;28;20828;-84
2022/03/19 05:05:39;;;;;;;19.47;7.97;;;;;;;;;;5059468;28;20473;-83
2022/03/19 05:08:06;;;;;;;18.60;8.98;;;;;;;;;;5057394;28;20429;-84
2022/03/19 05:13:17;;;;;;;21.05;8.20;;;;;;;;;;5056663;28;20432;-84
2022/03/19 05:15:45;;;;;;;20.20;8.32;;;;;;;;;;5057432;28;20519;-84
2022/03/19 05:18:12;;;;;;;18.95;8.35;;;;;;;;;;5057349;28;20836;-84
2022/03/19 05:20:38;;;;;;;22.20;9.30;;;;;;;;;;5060975;28;20417;-84
2022/03/19 05:23:05;;;;;;;24.70;8.93;;;;;;;;;;5057772;28;20443;-84
2022/03/19 05:25:31;;;;;;;21.53;9.80;;;;;;;;;;5055768;28;20502;-84
2022/03/19 05:27:58;;;;;;;21.48;9.02;;;;;;;;;;5058975;28;20421;-85
2022/03/19 05:30:24;;;;;;;24.88;9.85;;;;;;;;;;5058382;28;20447;-84
2022/03/19 05:32:52;;;;;;;28.13;10.13;;;;;;;;;;5056328;28;20470;-84
2022/03/19 05:35:18;;;;;;;23.97;10.33;;;;;;;;;;5054050;28;20450;-84
2022/03/19 05:37:45;;;;;;;24.73;9.02;;;;;;;;;;5057983;28;20500;-83
2022/03/19 05:40:11;;;;;;;24.33;10.10;;;;;;;;;;5057874;28;20436;-84
2022/03/19 05:42:38;;;;;;;23.08;10.80;;;;;;;;;;5054568;28;20425;-84
2022/03/19 05:45:04;;;;;;;21.08;9.20;;;;;;;;;;5057753;28;20419;-83
2022/03/19 05:47:31;;;;;;;23.10;10.47;;;;;;;;;;5057179;28;20467;-84
2022/03/19 05:49:58;;;;;;;21.58;10.40;;;;;;;;;;5055689;28;20469;-84
2022/03/19 05:52:24;;;;;;;23.60;11.82;;;;;;;;;;5058691;28;20423;-84
2022/03/19 05:54:51;;;;;;;18.83;10.27;;;;;;;;;;5058285;28;20929;-84
2022/03/19 05:57:17;;;;;;;18.48;10.68;;;;;;;;;;5056715;28;20427;-83
2022/03/19 05:59:43;;;;;;;25.85;12.13;;;;;;;;;;5059448;28;20417;-85
2022/03/19 06:02:09;;;;;;;23.15;10.73;;;;;;;;;;5057832;28;20428;-85
2022/03/19 06:04:36;;;;;;;24.52;11.35;;;;;;;;;;5059368;28;20480;-84
2022/03/19 06:07:04;;;;;;;21.47;10.30;;;;;;;;;;5058842;28;21018;-84
2022/03/19 06:09:30;;;;;;;25.60;11.30;;;;;;;;;;5056674;28;20431;-83
2022/03/19 06:11:57;;;;;;;25.23;12.80;;;;;;;;;;5058068;28;20510;-84
2022/03/19 06:14:23;;;;;;;25.60;11.00;;;;;;;;;;5059278;28;20431;-84
2022/03/19 06:16:50;;;;;;;22.50;10.80;;;;;;;;;;5058096;28;20424;-84
2022/03/19 06:19:16;;;;;;;19.42;11.23;;;;;;;;;;5057427;28;20444;-84
2022/03/19 06:21:42;;;;;;;23.50;10.90;;;;;;;;;;5058953;28;20456;-84
2022/03/19 06:24:10;;;;;;;24.55;10.98;;;;;;;;;;5057551;28;20473;-85
2022/03/19 06:26:37;;;;;;;22.15;12.38;;;;;;;;;;5055058;28;20488;-84
2022/03/19 06:29:04;;;;;;;24.38;11.90;;;;;;;;;;5058298;28;20471;-84
2022/03/19 06:31:30;;;;;;;23.88;10.95;;;;;;;;;;5058315;28;20415;-84
2022/03/19 06:33:56;;;;;;;27.63;11.52;;;;;;;;;;5059831;28;20485;-84
2022/03/19 06:39:06;;;;;;;22.83;11.70;;;;;;;;;;5057287;28;20419;-83
2022/03/19 06:41:34;;;;;;;21.40;10.90;;;;;;;;;;5058083;28;20937;-84
2022/03/19 06:44:00;;;;;;;22.58;11.23;;;;;;;;;;5058904;28;20429;-84
2022/03/19 06:46:27;;;;;;;19.58;11.50;;;;;;;;;;5059618;28;20497;-84
2022/03/19 06:48:53;;;;;;;17.87;10.10;;;;;;;;;;5057704;28;20982;-84
2022/03/19 06:51:19;;;;;;;20.48;10.70;;;;;;;;;;5054790;28;20417;-83
2022/03/19 06:53:46;;;;;;;21.73;11.10;;;;;;;;;;5058173;28;20431;-84
2022/03/19 06:56:13;;;;;;;26.02;11.27;;;;;;;;;;5055351;28;20431;-83
2022/03/19 06:58:41;;;;;;;21.92;10.43;;;;;;;;;;5052293;28;20459;-83
2022/03/19 07:01:09;;;;;;;24.10;9.82;;;;;;;;;;5056079;28;20508;-82
2022/03/19 07:03:35;;;;;;;23.50;10.50;;;;;;;;;;5058866;28;20485;-83
2022/03/19 07:06:01;;;;;;;23.85;10.48;;;;;;;;;;5061937;28;20447;-86
2022/03/19 07:08:29;;;;;;;22.90;10.50;;;;;;;;;;5063263;28;20439;-86
2022/03/19 07:10:55;;;;;;;22.30;9.50;;;;;;;;;;5063296;28;20454;-84
2022/03/19 07:13:22;;;;;;;17.27;9.10;;;;;;;;;;5064389;28;20439;-85
2022/03/19 07:15:49;;;;;;;19.95;9.10;;;;;;;;;;5058724;28;20438;-85
2022/03/19 07:18:16;;;;;;;24.10;9.50;;;;;;;;;;5061364;28;22046;-85
2022/03/19 07:20:42;;;;;;;21.17;9.73;;;;;;;;;;5055797;28;20432;-83
2022/03/19 07:23:08;;;;;;;18.35;9.65;;;;;;;;;;5059684;28;20421;-85
2022/03/19 07:25:35;;;;;;;19.17;8.73;;;;;;;;;;5061799;28;20431;-85
2022/03/19 07:28:06;;;;;;;17.42;7.85;;;;;;;;;;5062209;28;20421;-84
2022/03/19 07:30:32;;;;;;;15.67;7.73;;;;;;;;;;5065853;28;20447;-85
2022/03/19 07:33:00;;;;;;;15.07;7.90;;;;;;;;;;5063392;28;20430;-86
2022/03/19 07:35:27;;;;;;;16.08;7.30;;;;;;;;;;5061890;28;20431;-85
2022/03/19 07:37:53;;;;;;;16.75;7.20;;;;;;;;;;5065165;28;20423;-85
2022/03/19 07:43:02;;;;;;;15.73;6.50;;;;;;;;;;5056279;28;20418;-81
2022/03/19 07:45:28;;;;;;;13.55;6.40;;;;;;;;;;5059169;28;20431;-81
2022/03/19 07:47:54;;;;;;;14.87;5.60;;;;;;;;;;5058816;28;20475;-81
2022/03/19 07:50:22;;;;;;;13.27;6.10;;;;;;;;;;5058001;28;20437;-80
2022/03/19 07:52:48;;;;;;;15.13;6.22;;;;;;;;;;5060968;28;20423;-80
2022/03/19 07:55:15;;;;;;;12.40;4.93;;;;;;;;;;5059813;28;20509;-80
2022/03/19 07:57:41;;;;;;;15.30;5.40;;;;;;;;;;5055817;28;20429;-80
2022/03/19 08:00:09;;;;;;;11.80;5.40;;;;;;;;;;5059989;28;20480;-80
2022/03/19 08:02:35;;;;;;;13.48;4.72;;;;;;;;;;5060842;28;20448;-80
2022/03/19 08:05:03;;;;;;;12.73;4.80;;;;;;;;;;5063002;28;20824;-80
2022/03/19 08:07:30;;;;;;;11.55;3.67;;;;;;;;;;5058612;28;20436;-79
2022/03/19 08:09:57;;;;;;;10.25;3.90;;;;;;;;;;5061488;28;20676;-80
2022/03/19 08:12:23;;;;;;;10.55;4.28;;;;;;;;;;5059314;28;20421;-80
2022/03/19 08:14:49;;;;;;;9.30;3.80;;;;;;;;;;5061292;28;20523;-80
2022/03/19 08:17:16;;;;;;;8.98;4.05;;;;;;;;;;5058961;28;20511;-80
2022/03/19 08:19:42;;;;;;;8.85;3.40;;;;;;;;;;5062796;28;20443;-78
2022/03/19 08:22:09;;;;;;;12.30;3.90;;;;;;;;;;5065579;28;20412;-80
2022/03/19 08:24:36;;;;;;;7.43;3.00;;;;;;;;;;5066135;28;20478;-80
2022/03/19 08:27:03;;;;;;;7.70;3.60;;;;;;;;;;5064724;28;20417;-79
2022/03/19 08:29:29;;;;;;;12.25;3.30;;;;;;;;;;5064331;28;20433;-81
2022/03/19 08:31:56;;;;;;;7.50;2.80;;;;;;;;;;5062237;28;20431;-81
2022/03/19 08:34:22;;;;;;;7.28;3.25;;;;;;;;;;5066568;28;20497;-80
2022/03/19 08:36:49;;;;;;;10.05;2.80;;;;;;;;;;5065594;28;20855;-80
2022/03/19 08:42:01;;;;;;;7.20;2.70;;;;;;;;;;5062684;28;20494;-80
2022/03/19 08:44:27;;;;;;;11.30;3.10;;;;;;;;;;5066425;28;20412;-80
2022/03/19 08:46:53;;;;;;;6.90;3.00;;;;;;;;;;5062778;28;20465;-80
2022/03/19 08:49:19;;;;;;;8.05;2.83;;;;;;;;;;5064615;28;20419;-81
2022/03/19 08:51:46;;;;;;;7.18;3.33;;;;;;;;;;5063057;28;20418;-80
2022/03/19 08:54:14;;;;;;;6.37;2.90;;;;;;;;;;5066033;28;20436;-81
2022/03/19 08:56:40;;;;;;;10.27;3.10;;;;;;;;;;5059831;28;20420;-80
2022/03/19 08:59:09;;;;;;;11.35;3.50;;;;;;;;;;5064280;28;20508;-81
2022/03/19 09:01:36;;;;;;;10.23;3.20;;;;;;;;;;5062930;28;20431;-81
2022/03/19 09:04:02;;;;;;;7.40;2.97;;;;;;;;;;5065102;28;20421;-80
2022/03/19 09:06:28;;;;;;;7.82;3.28;;;;;;;;;;5064206;28;20434;-81
2022/03/19 09:08:55;;;;;;;10.63;3.40;;;;;;;;;;5062458;28;20409;-81
2022/03/19 09:11:23;;;;;;;10.20;3.90;;;;;;;;;;5064786;28;20416;-81
2022/03/19 09:13:50;;;;;;;6.40;3.00;;;;;;;;;;5062030;28;20958;-80
2022/03/19 09:16:18;;;;;;;10.82;3.78;;;;;;;;;;5064784;28;20470;-81
2022/03/19 09:18:45;;;;;;;10.43;3.33;;;;;;;;;;5063709;28;20428;-81
2022/03/19 09:21:11;;;;;;;8.60;3.60;;;;;;;;;;5063636;28;20420;-80
2022/03/19 09:23:38;;;;;;;10.85;3.60;;;;;;;;;;5061796;28;20429;-80
2022/03/19 09:26:04;;;;;;;10.40;3.30;;;;;;;;;;5062804;28;20427;-80
2022/03/19 09:28:30;;;;;;;6.50;2.90;;;;;;;;;;5061484;28;20437;-80
2022/03/19 09:30:57;;;;;;;7.97;2.90;;;;;;;;;;5064564;28;20423;-80
2022/03/19 09:33:25;;;;;;;7.93;3.50;;;;;;;;;;5064738;28;20449;-81
2022/03/19 09:35:51;;;;;;;9.20;3.47;;;;;;;;;;5062643;28;20421;-81
2022/03/19 09:38:17;;;;;;;10.10;3.35;;;;;;;;;;5061973;28;20416;-81
2022/03/19 09:40:44;;;;;;;10.27;7.57;;;;;;;;;;5063353;28;20542;-80
2022/03/19 09:43:10;;;;;;;7.30;3.53;;;;;;;;;;5062213;28;20993;-80
2022/03/19 09:45:38;;;;;;;11.10;3.50;;;;;;;;;;5065410;28;20428;-81
2022/03/19 09:48:04;;;;;;;9.70;3.53;;;;;;;;;;5062907;28;20459;-80
2022/03/19 09:50:34;;;;;;;7.72;3.60;;;;;;;;;;5061575;28;20448;-81
2022/03/19 09:53:03;;;;;;;10.68;3.35;;;;;;;;;;5062918;28;20837;-81
2022/03/19 09:55:30;;;;;;;7.00;3.67;;;;;;;;;;5063151;28;20435;-81
2022/03/19 09:57:56;;;;;;;6.78;3.03;;;;;;;;;;5060204;28;20443;-80
2022/03/19 10:00:24;;;;;;;8.05;3.08;;;;;;;;;;5058125;28;20500;-81
2022/03/19 10:02:51;;;;;;;5.57;2.50;;;;;;;;;;5062817;28;20507;-80
2022/03/19 10:10:43;;;;;;;9.15;3.08;;;;;;;;;;5059254;28;20426;-80
2022/03/19 10:13:10;;;;;;;9.00;3.03;;;;;;;;;;5063416;28;20472;-81
2022/03/19 10:15:40;;;;;;;7.00;2.80;;;;;;;;;;5062109;28;20451;-80
2022/03/19 10:18:08;;;;;;;8.90;3.00;;;;;;;;;;5057580;28;20767;-79
2022/03/19 10:20:36;;;;;;;7.38;2.90;;;;;;;;;;5061176;28;22279;-81
2022/03/19 10:23:04;;;;;;;5.80;2.70;;;;;;;;;;5061787;28;20471;-81
2022/03/19 10:25:30;;;;;;;7.57;2.97;;;;;;;;;;5061753;28;20955;-79
2022/03/19 10:28:00;;;;;;;10.15;2.75;;;;;;;;;;5058595;28;20428;-81
2022/03/19 10:30:28;;;;;;;8.50;2.75;;;;;;;;;;5058757;28;20421;-81
2022/03/19 10:32:56;;;;;;;7.95;2.42;;;;;;;;;;5059231;28;20453;-81
2022/03/19 10:35:26;;;;;;;9.98;2.85;;;;;;;;;;5057887;28;20487;-81
2022/03/19 10:37:52;;;;;;;8.05;2.75;;;;;;;;;;5060895;28;20428;-81
2022/03/19 10:40:20;;;;;;;9.60;2.83;;;;;;;;;;5061304;28;20483;-80
2022/03/19 10:42:47;;;;;;;6.80;2.80;;;;;;;;;;5063116;28;20419;-81
2022/03/19 10:45:22;;;;;;;8.35;2.90;;;;;;;;;;5063625;28;20965;-80
2022/03/19 10:47:48;;;;;;;7.15;2.40;;;;;;;;;;5060314;28;20421;-81
2022/03/19 10:50:19;;;;;;;6.75;2.70;;;;;;;;;;5059606;28;20426;-80
2022/03/19 10:52:46;;;;;;;7.43;2.60;;;;;;;;;;5062180;28;20496;-81
2022/03/19 10:55:12;;;;;;;7.32;2.70;;;;;;;;;;5061335;28;20423;-81
2022/03/19 10:57:41;;;;;;;8.63;2.90;;;;;;;;;;5062320;28;20410;-81
2022/03/19 11:00:08;;;;;;;6.55;2.35;;;;;;;;;;5060189;28;20429;-81
2022/03/19 11:02:36;;;;;;;7.55;2.53;;;;;;;;;;5060783;28;20428;-81
2022/03/19 11:05:02;;;;;;;6.10;2.63;;;;;;;;;;5059924;28;20446;-81
2022/03/19 11:07:31;;;;;;;5.10;2.38;;;;;;;;;;5056588;28;20430;-81
2022/03/19 11:09:58;;;;;;;6.57;2.40;;;;;;;;;;5058058;28;20433;-80
2022/03/19 11:12:26;;;;;;;6.85;2.70;;;;;;;;;;5058866;28;20423;-81
2022/03/19 11:14:54;;;;;;;6.40;2.50;;;;;;;;;;5061945;28;20520;-82
2022/03/19 11:17:24;;;;;;;6.50;2.60;;;;;;;;;;5062351;28;20421;-80
2022/03/19 11:19:52;;;;;;;6.55;2.38;;;;;;;;;;5061008;28;20528;-80
2022/03/19 11:22:18;;;;;;;7.87;2.47;;;;;;;;;;5063215;28;20428;-81
2022/03/19 11:24:47;;;;;;;4.75;2.10;;;;;;;;;;5058297;28;20441;-80
2022/03/19 11:27:15;;;;;;;7.63;2.60;;;;;;;;;;5060520;28;20516;-81
2022/03/19 11:29:41;;;;;;;8.57;2.78;;;;;;;;;;5062460;28;20857;-80
2022/03/19 11:32:09;;;;;;;6.53;2.20;;;;;;;;;;5063147;28;20421;-81
2022/03/19 11:34:45;;;;;;;4.60;2.33;;;;;;;;;;5063312;28;20419;-80
2022/03/19 11:37:12;;;;;;;5.45;2.35;;;;;;;;;;5060087;28;20415;-80
2022/03/19 11:39:39;;;;;;;5.90;2.50;;;;;;;;;;5060541;28;20491;-80
2022/03/19 11:42:07;;;;;;;6.70;2.20;;;;;;;;;;5060336;28;20430;-80
2022/03/19 11:44:33;;;;;;;5.80;2.15;;;;;;;;;;5064754;28;21049;-81
2022/03/19 11:47:00;;;;;;;5.82;2.20;;;;;;;;;;5065540;28;20415;-80
2022/03/19 11:49:45;;;;;;;5.00;2.40;;;;;;;;;;5065538;28;20510;-81
2022/03/19 11:52:15;;;;;;;6.05;2.40;;;;;;;;;;5065853;28;20419;-80
2022/03/19 11:54:58;;;;;;;5.70;2.30;;;;;;;;;;5067393;28;20441;-80
2022/03/19 11:57:26;;;;;;;6.60;2.15;;;;;;;;;;5061991;28;20470;-80
2022/03/19 11:59:57;;;;;;;7.55;2.72;;;;;;;;;;5064813;28;20427;-80
2022/03/19 12:02:23;;;;;;;5.88;2.60;;;;;;;;;;5064400;28;20422;-82
2022/03/19 12:04:51;;;;;;;5.38;2.03;;;;;;;;;;5067162;28;20413;-80
2022/03/19 12:07:33;;;;;;;5.55;2.47;;;;;;;;;;5066983;28;20915;-81
2022/03/19 12:10:01;;;;;;;6.30;2.50;;;;;;;;;;5061351;28;20443;-81
2022/03/19 12:12:27;;;;;;;6.75;2.47;;;;;;;;;;5064149;28;20457;-80
2022/03/19 12:14:55;;;;;;;5.78;2.25;;;;;;;;;;5060586;28;20456;-81
2022/03/19 12:17:23;;;;;;;6.15;2.80;;;;;;;;;;5066716;28;20499;-80
2022/03/19 12:19:53;;;;;;;5.85;2.15;;;;;;;;;;5067465;28;20425;-81
2022/03/19 12:22:30;;;;;;;5.60;2.40;;;;;;;;;;5066307;28;20906;-81
2022/03/19 12:25:02;;;;;;;5.57;2.33;;;;;;;;;;5068207;28;20421;-81
2022/03/19 12:27:30;;;;;;;6.88;2.42;;;;;;;;;;5063957;28;20424;-81
2022/03/19 12:29:58;;;;;;;5.65;2.38;;;;;;;;;;5061205;28;20561;-80
2022/03/19 12:32:24;;;;;;;5.60;2.28;;;;;;;;;;5063134;28;20834;-81
2022/03/19 12:34:57;;;;;;;4.38;2.30;;;;;;;;;;5064549;28;20427;-80
2022/03/19 12:37:24;;;;;;;3.90;2.20;;;;;;;;;;5064470;28;20461;-80
2022/03/19 12:39:57;;;;;;;3.75;2.00;;;;;;;;;;5064199;28;21079;-81
2022/03/19 12:42:30;;;;;;;10.15;5.63;;;;;;;;;;5060364;28;20475;-82
2022/03/19 12:44:59;;;;;;;4.40;2.33;;;;;;;;;;5065977;28;20900;-81
2022/03/19 12:47:25;;;;;;;7.00;2.20;;;;;;;;;;5065452;28;20429;-80
2022/03/19 12:49:51;;;;;;;6.45;2.50;;;;;;;;;;5066067;28;20425;-79
2022/03/19 12:52:18;;;;;;;4.72;1.70;;;;;;;;;;5064527;28;20437;-81
2022/03/19 12:54:45;;;;;;;5.60;1.98;;;;;;;;;;5064306;28;21675;-81
2022/03/19 12:57:13;;;;;;;8.02;2.65;;;;;;;;;;5063331;28;20947;-81
2022/03/19 12:59:48;;;;;;;5.50;2.40;;;;;;;;;;5061605;28;20494;-81
2022/03/19 13:02:15;;;;;;;5.87;2.23;;;;;;;;;;5066753;28;20416;-81
2022/03/19 13:04:43;;;;;;;6.13;2.10;;;;;;;;;;5066839;28;20411;-80
2022/03/19 13:07:09;;;;;;;4.72;2.10;;;;;;;;;;5065999;28;20413;-81
2022/03/19 13:09:38;;;;;;;5.63;2.40;;;;;;;;;;5065933;28;20413;-81
2022/03/19 13:12:05;;;;;;;4.35;2.50;;;;;;;;;;5064178;28;20442;-80
2022/03/19 13:14:31;;;;;;;4.60;2.22;;;;;;;;;;5064308;28;20431;-81
2022/03/19 13:16:59;;;;;;;3.47;1.88;;;;;;;;;;5065560;28;20420;-81
2022/03/19 13:19:27;;;;;;;4.82;2.10;;;;;;;;;;5067210;28;20432;-80
2022/03/19 13:21:55;;;;;;;3.03;1.60;;;;;;;;;;5061810;28;20431;-81
2022/03/19 13:24:22;;;;;;;2.72;1.70;;;;;;;;;;5065191;28;20950;-82
2022/03/19 13:26:49;;;;;;;2.35;1.63;;;;;;;;;;5061523;28;20434;-82
2022/03/19 13:29:16;;;;;;;4.22;1.58;;;;;;;;;;5060144;28;20419;-81
2022/03/19 13:31:52;;;;;;;3.60;1.88;;;;;;;;;;5066463;28;20424;-79
2022/03/19 13:34:20;;;;;;;3.70;2.22;;;;;;;;;;5064868;28;20817;-81
2022/03/19 13:36:49;;;;;;;3.72;1.70;;;;;;;;;;5054694;28;20417;-80
2022/03/19 13:39:18;;;;;;;2.80;1.30;;;;;;;;;;5064372;28;20453;-81
2022/03/19 13:44:26;;;;;;;2.97;1.67;;;;;;;;;;5001643;28;20463;-82
2022/03/19 13:47:02;;;;;;;3.20;1.70;;;;;;;;;;4993863;28;20430;-82
2022/03/19 13:49:35;;;;;;;3.55;2.00;;;;;;;;;;4989950;28;20432;-83
2022/03/19 13:52:01;;;;;;;4.22;1.40;;;;;;;;;;4983051;28;21421;-83
2022/03/19 13:54:42;;;;;;;2.33;1.70;;;;;;;;;;4983055;28;20438;-83
2022/03/19 13:57:08;;;;;;;4.00;1.77;;;;;;;;;;4985006;28;20430;-82
2022/03/19 13:59:36;;;;;;;1.83;1.35;;;;;;;;;;4986592;28;20913;-82
2022/03/19 14:02:03;;;;;;;3.90;1.50;;;;;;;;;;4984262;28;20497;-82
2022/03/19 14:04:35;;;;;;;2.70;1.80;;;;;;;;;;4985708;28;20508;-80
2022/03/19 14:07:01;;;;;;;2.60;1.75;;;;;;;;;;4984960;28;20915;-82
2022/03/19 14:09:28;;;;;;;4.50;2.33;;;;;;;;;;4986231;28;20434;-84
2022/03/19 14:11:54;;;;;;;5.40;1.90;;;;;;;;;;4983320;28;20929;-84
2022/03/19 14:14:20;;;;;;;3.30;1.80;;;;;;;;;;4984907;28;20426;-83
2022/03/19 14:16:58;;;;;;;4.80;1.52;;;;;;;;;;4985900;28;20431;-82
2022/03/19 14:19:24;;;;;;;4.53;1.70;;;;;;;;;;4986004;28;20521;-82
2022/03/19 14:21:52;;;;;;;5.65;2.08;;;;;;;;;;4981645;28;20434;-84
2022/03/19 14:24:18;;;;;;;3.67;2.10;;;;;;;;;;4983142;28;20434;-82
2022/03/19 14:26:45;;;;;;;4.40;2.03;;;;;;;;;;4985925;28;20508;-82
2022/03/19 14:29:11;;;;;;;5.18;2.50;;;;;;;;;;4985642;28;20463;-83
2022/03/19 14:31:37;;;;;;;2.70;1.90;;;;;;;;;;4985872;28;20941;-83
2022/03/19 14:34:04;;;;;;;2.95;2.10;;;;;;;;;;4982184;28;20445;-83
2022/03/19 14:36:30;;;;;;;5.20;2.10;;;;;;;;;;4989112;28;20476;-83
2022/03/19 14:38:58;;;;;;;3.50;1.70;;;;;;;;;;5004483;28;20529;-83
2022/03/19 14:41:24;;;;;;;3.22;1.60;;;;;;;;;;5004269;28;20913;-84
2022/03/19 14:43:53;;;;;;;5.68;2.30;;;;;;;;;;5007575;28;20461;-83
2022/03/19 14:46:19;;;;;;;5.38;1.95;;;;;;;;;;5004507;28;20516;-82
2022/03/19 14:48:46;;;;;;;4.20;2.00;;;;;;;;;;4986342;28;20519;-82
2022/03/19 14:51:13;;;;;;;3.13;1.80;;;;;;;;;;4983181;28;20473;-85
2022/03/19 14:53:39;;;;;;;3.37;1.60;;;;;;;;;;4985862;28;20462;-83
2022/03/19 14:56:08;;;;;;;4.20;1.90;;;;;;;;;;4986509;28;20469;-83
2022/03/19 14:58:34;;;;;;;4.60;2.13;;;;;;;;;;4986140;28;20422;-83